sensor_id;sensor_type;location;lat;lon;timestamp;P1;durP1;ratioP1;P2;durP2;ratioP2
84357;SDS011;74548;47.712;9.272;2024-01-30T00:00:53;3.37;;;2.00;;
84357;SDS011;74548;47.712;9.272;2024-01-30T00:03:19;4.70;;;2.67;;
84357;SDS011;74548;47.712;9.272;2024-01-30T00:05:44;4.57;;;2.47;;
84357;SDS011;74548;47.712;9.272;2024-01-30T00:08:10;4.03;;;2.53;;
84357;SDS011;74548;47.712;9.272;2024-01-30T00:10:35;3.70;;;2.50;;
84357;SDS011;74548;47.712;9.272;2024-01-30T00:13:01;3.97;;;2.20;;
84357;SDS011;74548;47.712;9.272;2024-01-30T00:15:27;3.42;;;2.22;;
84357;SDS011;74548;47.712;9.272;2024-01-30T00:17:53;4.72;;;2.45;;
84357;SDS011;74548;47.712;9.272;2024-01-30T00:20:18;5.07;;;2.50;;
84357;SDS011;74548;47.712;9.272;2024-01-30T00:22:44;3.90;;;2.60;;
84357;SDS011;74548;47.712;9.272;2024-01-30T00:25:09;3.30;;;2.60;;
84357;SDS011;74548;47.712;9.272;2024-01-30T00:27:34;3.67;;;2.50;;
84357;SDS011;74548;47.712;9.272;2024-01-30T00:30:00;3.50;;;2.30;;
84357;SDS011;74548;47.712;9.272;2024-01-30T00:32:25;3.95;;;2.10;;
84357;SDS011;74548;47.712;9.272;2024-01-30T00:34:50;4.17;;;2.67;;
84357;SDS011;74548;47.712;9.272;2024-01-30T00:37:16;3.28;;;2.20;;
84357;SDS011;74548;47.712;9.272;2024-01-30T00:39:41;3.10;;;2.10;;
84357;SDS011;74548;47.712;9.272;2024-01-30T00:42:07;3.55;;;2.40;;
84357;SDS011;74548;47.712;9.272;2024-01-30T00:44:34;3.63;;;2.60;;
84357;SDS011;74548;47.712;9.272;2024-01-30T00:49:32;4.10;;;2.47;;
84357;SDS011;74548;47.712;9.272;2024-01-30T00:51:57;5.00;;;2.72;;
84357;SDS011;74548;47.712;9.272;2024-01-30T00:54:22;3.30;;;2.37;;
84357;SDS011;74548;47.712;9.272;2024-01-30T00:56:48;4.83;;;2.70;;
84357;SDS011;74548;47.712;9.272;2024-01-30T00:59:13;3.80;;;2.80;;
84357;SDS011;74548;47.712;9.272;2024-01-30T01:01:38;4.13;;;2.73;;
84357;SDS011;74548;47.712;9.272;2024-01-30T01:04:04;4.55;;;2.70;;
84357;SDS011;74548;47.712;9.272;2024-01-30T01:06:29;4.07;;;2.20;;
84357;SDS011;74548;47.712;9.272;2024-01-30T01:08:54;3.17;;;2.30;;
84357;SDS011;74548;47.712;9.272;2024-01-30T01:11:20;3.77;;;2.23;;
84357;SDS011;74548;47.712;9.272;2024-01-30T01:13:45;3.58;;;2.40;;
84357;SDS011;74548;47.712;9.272;2024-01-30T01:16:10;3.20;;;2.17;;
84357;SDS011;74548;47.712;9.272;2024-01-30T01:18:36;3.30;;;2.33;;
84357;SDS011;74548;47.712;9.272;2024-01-30T01:21:01;2.80;;;2.03;;
84357;SDS011;74548;47.712;9.272;2024-01-30T01:23:26;2.17;;;1.90;;
84357;SDS011;74548;47.712;9.272;2024-01-30T01:25:52;4.05;;;2.47;;
84357;SDS011;74548;47.712;9.272;2024-01-30T01:28:17;3.90;;;2.13;;
84357;SDS011;74548;47.712;9.272;2024-01-30T01:30:43;3.40;;;2.13;;
84357;SDS011;74548;47.712;9.272;2024-01-30T01:33:09;3.28;;;2.03;;
84357;SDS011;74548;47.712;9.272;2024-01-30T01:38:03;4.28;;;2.05;;
84357;SDS011;74548;47.712;9.272;2024-01-30T01:40:29;4.32;;;2.35;;
84357;SDS011;74548;47.712;9.272;2024-01-30T01:42:55;3.38;;;2.25;;
84357;SDS011;74548;47.712;9.272;2024-01-30T01:45:21;4.35;;;2.53;;
84357;SDS011;74548;47.712;9.272;2024-01-30T01:47:50;3.58;;;2.03;;
84357;SDS011;74548;47.712;9.272;2024-01-30T01:50:16;3.33;;;2.13;;
84357;SDS011;74548;47.712;9.272;2024-01-30T01:52:47;3.83;;;2.40;;
84357;SDS011;74548;47.712;9.272;2024-01-30T01:55:13;3.85;;;2.22;;
84357;SDS011;74548;47.712;9.272;2024-01-30T01:57:39;2.30;;;1.50;;
84357;SDS011;74548;47.712;9.272;2024-01-30T02:00:05;3.33;;;2.10;;
84357;SDS011;74548;47.712;9.272;2024-01-30T02:02:34;3.40;;;2.10;;
84357;SDS011;74548;47.712;9.272;2024-01-30T02:05:00;3.65;;;2.50;;
84357;SDS011;74548;47.712;9.272;2024-01-30T02:07:26;3.90;;;2.10;;
84357;SDS011;74548;47.712;9.272;2024-01-30T02:09:52;3.40;;;1.80;;
84357;SDS011;74548;47.712;9.272;2024-01-30T02:12:18;3.58;;;2.15;;
84357;SDS011;74548;47.712;9.272;2024-01-30T02:14:44;3.50;;;2.07;;
84357;SDS011;74548;47.712;9.272;2024-01-30T02:19:42;3.65;;;2.60;;
84357;SDS011;74548;47.712;9.272;2024-01-30T02:22:08;3.47;;;2.20;;
84357;SDS011;74548;47.712;9.272;2024-01-30T02:24:34;3.28;;;2.00;;
84357;SDS011;74548;47.712;9.272;2024-01-30T02:26:59;2.90;;;1.77;;
84357;SDS011;74548;47.712;9.272;2024-01-30T02:31:47;2.50;;;1.85;;
84357;SDS011;74548;47.712;9.272;2024-01-30T02:34:13;2.67;;;1.88;;
84357;SDS011;74548;47.712;9.272;2024-01-30T02:36:38;3.38;;;1.85;;
84357;SDS011;74548;47.712;9.272;2024-01-30T02:39:07;4.18;;;2.50;;
84357;SDS011;74548;47.712;9.272;2024-01-30T02:41:32;3.28;;;2.10;;
84357;SDS011;74548;47.712;9.272;2024-01-30T02:43:57;3.10;;;1.83;;
84357;SDS011;74548;47.712;9.272;2024-01-30T02:46:23;3.78;;;2.05;;
84357;SDS011;74548;47.712;9.272;2024-01-30T02:48:48;2.97;;;2.00;;
84357;SDS011;74548;47.712;9.272;2024-01-30T02:51:13;3.70;;;2.30;;
84357;SDS011;74548;47.712;9.272;2024-01-30T02:53:39;3.60;;;2.17;;
84357;SDS011;74548;47.712;9.272;2024-01-30T02:56:04;3.90;;;2.20;;
84357;SDS011;74548;47.712;9.272;2024-01-30T02:58:30;3.42;;;2.13;;
84357;SDS011;74548;47.712;9.272;2024-01-30T03:00:56;3.38;;;2.05;;
84357;SDS011;74548;47.712;9.272;2024-01-30T03:03:21;3.97;;;2.30;;
84357;SDS011;74548;47.712;9.272;2024-01-30T03:05:46;3.70;;;2.43;;
84357;SDS011;74548;47.712;9.272;2024-01-30T03:08:12;3.67;;;2.00;;
84357;SDS011;74548;47.712;9.272;2024-01-30T03:10:37;4.23;;;2.23;;
84357;SDS011;74548;47.712;9.272;2024-01-30T03:13:02;4.28;;;2.50;;
84357;SDS011;74548;47.712;9.272;2024-01-30T03:15:28;3.45;;;2.13;;
84357;SDS011;74548;47.712;9.272;2024-01-30T03:17:53;3.40;;;2.20;;
84357;SDS011;74548;47.712;9.272;2024-01-30T03:20:19;3.35;;;2.10;;
84357;SDS011;74548;47.712;9.272;2024-01-30T03:22:44;4.43;;;2.67;;
84357;SDS011;74548;47.712;9.272;2024-01-30T03:25:10;3.15;;;2.28;;
84357;SDS011;74548;47.712;9.272;2024-01-30T03:27:35;4.00;;;2.30;;
84357;SDS011;74548;47.712;9.272;2024-01-30T03:30:00;3.03;;;2.33;;
84357;SDS011;74548;47.712;9.272;2024-01-30T03:32:26;2.95;;;2.00;;
84357;SDS011;74548;47.712;9.272;2024-01-30T03:34:51;3.42;;;2.22;;
84357;SDS011;74548;47.712;9.272;2024-01-30T03:37:16;2.67;;;2.35;;
84357;SDS011;74548;47.712;9.272;2024-01-30T03:42:12;3.13;;;2.00;;
84357;SDS011;74548;47.712;9.272;2024-01-30T03:44:38;3.10;;;2.30;;
84357;SDS011;74548;47.712;9.272;2024-01-30T03:47:03;3.80;;;2.20;;
84357;SDS011;74548;47.712;9.272;2024-01-30T03:49:28;2.93;;;1.83;;
84357;SDS011;74548;47.712;9.272;2024-01-30T03:51:54;3.53;;;2.20;;
84357;SDS011;74548;47.712;9.272;2024-01-30T03:54:19;4.07;;;2.60;;
84357;SDS011;74548;47.712;9.272;2024-01-30T03:56:44;3.77;;;2.40;;
84357;SDS011;74548;47.712;9.272;2024-01-30T03:59:35;3.90;;;2.25;;
84357;SDS011;74548;47.712;9.272;2024-01-30T04:02:00;4.05;;;2.20;;
84357;SDS011;74548;47.712;9.272;2024-01-30T04:04:26;2.63;;;2.00;;
84357;SDS011;74548;47.712;9.272;2024-01-30T04:06:51;2.63;;;1.77;;
84357;SDS011;74548;47.712;9.272;2024-01-30T04:09:16;3.33;;;2.10;;
84357;SDS011;74548;47.712;9.272;2024-01-30T04:11:42;2.43;;;1.70;;
84357;SDS011;74548;47.712;9.272;2024-01-30T04:14:08;2.33;;;1.70;;
84357;SDS011;74548;47.712;9.272;2024-01-30T04:16:33;3.30;;;2.13;;
84357;SDS011;74548;47.712;9.272;2024-01-30T04:18:59;4.10;;;2.30;;
84357;SDS011;74548;47.712;9.272;2024-01-30T04:21:24;3.50;;;2.13;;
84357;SDS011;74548;47.712;9.272;2024-01-30T04:23:50;3.43;;;2.13;;
84357;SDS011;74548;47.712;9.272;2024-01-30T04:26:16;2.97;;;1.80;;
84357;SDS011;74548;47.712;9.272;2024-01-30T04:28:42;3.43;;;2.20;;
84357;SDS011;74548;47.712;9.272;2024-01-30T04:31:07;3.42;;;2.03;;
84357;SDS011;74548;47.712;9.272;2024-01-30T04:33:33;3.25;;;2.28;;
84357;SDS011;74548;47.712;9.272;2024-01-30T04:35:58;2.83;;;2.03;;
84357;SDS011;74548;47.712;9.272;2024-01-30T04:38:23;2.80;;;1.90;;
84357;SDS011;74548;47.712;9.272;2024-01-30T04:40:49;3.50;;;2.10;;
84357;SDS011;74548;47.712;9.272;2024-01-30T04:43:14;4.63;;;2.13;;
84357;SDS011;74548;47.712;9.272;2024-01-30T04:45:40;4.00;;;2.38;;
84357;SDS011;74548;47.712;9.272;2024-01-30T04:48:06;4.20;;;2.10;;
84357;SDS011;74548;47.712;9.272;2024-01-30T04:50:31;2.60;;;1.83;;
84357;SDS011;74548;47.712;9.272;2024-01-30T04:52:57;3.57;;;2.03;;
84357;SDS011;74548;47.712;9.272;2024-01-30T04:55:22;3.58;;;2.20;;
84357;SDS011;74548;47.712;9.272;2024-01-30T04:57:47;3.95;;;2.25;;
84357;SDS011;74548;47.712;9.272;2024-01-30T05:00:13;3.13;;;2.07;;
84357;SDS011;74548;47.712;9.272;2024-01-30T05:02:38;2.80;;;2.08;;
84357;SDS011;74548;47.712;9.272;2024-01-30T05:05:04;3.30;;;1.93;;
84357;SDS011;74548;47.712;9.272;2024-01-30T05:07:29;2.80;;;2.00;;
84357;SDS011;74548;47.712;9.272;2024-01-30T05:09:55;3.95;;;2.05;;
84357;SDS011;74548;47.712;9.272;2024-01-30T05:12:20;2.83;;;2.10;;
84357;SDS011;74548;47.712;9.272;2024-01-30T05:14:46;4.28;;;2.28;;
84357;SDS011;74548;47.712;9.272;2024-01-30T05:17:11;3.22;;;1.92;;
84357;SDS011;74548;47.712;9.272;2024-01-30T05:19:37;3.03;;;2.00;;
84357;SDS011;74548;47.712;9.272;2024-01-30T05:22:03;3.38;;;1.98;;
84357;SDS011;74548;47.712;9.272;2024-01-30T05:24:29;2.85;;;1.83;;
84357;SDS011;74548;47.712;9.272;2024-01-30T05:26:54;2.63;;;1.85;;
84357;SDS011;74548;47.712;9.272;2024-01-30T05:29:19;3.35;;;1.85;;
84357;SDS011;74548;47.712;9.272;2024-01-30T05:31:45;2.80;;;2.00;;
84357;SDS011;74548;47.712;9.272;2024-01-30T05:34:10;3.75;;;1.70;;
84357;SDS011;74548;47.712;9.272;2024-01-30T05:36:35;2.67;;;1.80;;
84357;SDS011;74548;47.712;9.272;2024-01-30T05:39:01;3.13;;;2.20;;
84357;SDS011;74548;47.712;9.272;2024-01-30T05:41:26;3.53;;;2.20;;
84357;SDS011;74548;47.712;9.272;2024-01-30T05:43:54;2.30;;;1.63;;
84357;SDS011;74548;47.712;9.272;2024-01-30T05:46:19;3.08;;;1.98;;
84357;SDS011;74548;47.712;9.272;2024-01-30T05:48:45;3.90;;;2.08;;
84357;SDS011;74548;47.712;9.272;2024-01-30T05:51:10;2.47;;;1.88;;
84357;SDS011;74548;47.712;9.272;2024-01-30T05:53:35;3.10;;;2.20;;
84357;SDS011;74548;47.712;9.272;2024-01-30T05:56:01;3.10;;;1.90;;
84357;SDS011;74548;47.712;9.272;2024-01-30T05:58:27;2.63;;;1.85;;
84357;SDS011;74548;47.712;9.272;2024-01-30T06:00:52;3.45;;;2.10;;
84357;SDS011;74548;47.712;9.272;2024-01-30T06:03:18;3.22;;;2.03;;
84357;SDS011;74548;47.712;9.272;2024-01-30T06:05:43;3.50;;;2.00;;
84357;SDS011;74548;47.712;9.272;2024-01-30T06:08:09;4.05;;;1.95;;
84357;SDS011;74548;47.712;9.272;2024-01-30T06:10:34;3.53;;;1.83;;
84357;SDS011;74548;47.712;9.272;2024-01-30T06:12:59;2.47;;;2.03;;
84357;SDS011;74548;47.712;9.272;2024-01-30T06:15:25;3.80;;;2.08;;
84357;SDS011;74548;47.712;9.272;2024-01-30T06:17:51;3.42;;;2.45;;
84357;SDS011;74548;47.712;9.272;2024-01-30T06:20:16;3.38;;;1.92;;
84357;SDS011;74548;47.712;9.272;2024-01-30T06:22:42;3.15;;;2.03;;
84357;SDS011;74548;47.712;9.272;2024-01-30T06:25:08;2.38;;;1.67;;
84357;SDS011;74548;47.712;9.272;2024-01-30T06:27:33;3.50;;;2.33;;
84357;SDS011;74548;47.712;9.272;2024-01-30T06:29:58;3.25;;;1.67;;
84357;SDS011;74548;47.712;9.272;2024-01-30T06:32:24;3.97;;;1.95;;
84357;SDS011;74548;47.712;9.272;2024-01-30T06:34:49;3.13;;;2.00;;
84357;SDS011;74548;47.712;9.272;2024-01-30T06:37:14;2.80;;;2.13;;
84357;SDS011;74548;47.712;9.272;2024-01-30T06:39:40;2.67;;;1.80;;
84357;SDS011;74548;47.712;9.272;2024-01-30T06:42:05;3.30;;;2.00;;
84357;SDS011;74548;47.712;9.272;2024-01-30T06:44:31;2.92;;;1.80;;
84357;SDS011;74548;47.712;9.272;2024-01-30T06:46:56;3.00;;;2.10;;
84357;SDS011;74548;47.712;9.272;2024-01-30T06:49:21;2.77;;;1.77;;
84357;SDS011;74548;47.712;9.272;2024-01-30T06:51:47;3.25;;;2.35;;
84357;SDS011;74548;47.712;9.272;2024-01-30T06:54:12;3.30;;;2.25;;
84357;SDS011;74548;47.712;9.272;2024-01-30T06:56:38;3.70;;;2.17;;
84357;SDS011;74548;47.712;9.272;2024-01-30T06:59:04;4.70;;;2.17;;
84357;SDS011;74548;47.712;9.272;2024-01-30T07:01:30;3.08;;;2.03;;
84357;SDS011;74548;47.712;9.272;2024-01-30T07:03:55;3.38;;;2.20;;
84357;SDS011;74548;47.712;9.272;2024-01-30T07:06:21;2.38;;;2.00;;
84357;SDS011;74548;47.712;9.272;2024-01-30T07:08:47;2.85;;;2.00;;
84357;SDS011;74548;47.712;9.272;2024-01-30T07:11:18;3.15;;;2.10;;
84357;SDS011;74548;47.712;9.272;2024-01-30T07:13:47;2.65;;;1.90;;
84357;SDS011;74548;47.712;9.272;2024-01-30T07:16:13;3.72;;;2.03;;
84357;SDS011;74548;47.712;9.272;2024-01-30T07:18:39;2.97;;;1.80;;
84357;SDS011;74548;47.712;9.272;2024-01-30T07:21:05;4.60;;;2.23;;
84357;SDS011;74548;47.712;9.272;2024-01-30T07:23:30;3.00;;;1.93;;
84357;SDS011;74548;47.712;9.272;2024-01-30T07:25:55;3.40;;;2.05;;
84357;SDS011;74548;47.712;9.272;2024-01-30T07:28:21;4.35;;;2.00;;
84357;SDS011;74548;47.712;9.272;2024-01-30T07:33:13;2.78;;;2.00;;
84357;SDS011;74548;47.712;9.272;2024-01-30T07:35:38;2.72;;;1.92;;
84357;SDS011;74548;47.712;9.272;2024-01-30T07:38:03;2.33;;;1.97;;
84357;SDS011;74548;47.712;9.272;2024-01-30T07:40:29;4.00;;;1.85;;
84357;SDS011;74548;47.712;9.272;2024-01-30T07:42:54;3.25;;;2.05;;
84357;SDS011;74548;47.712;9.272;2024-01-30T07:45:20;2.75;;;1.92;;
84357;SDS011;74548;47.712;9.272;2024-01-30T07:47:49;2.65;;;1.88;;
84357;SDS011;74548;47.712;9.272;2024-01-30T07:50:15;3.80;;;1.85;;
84357;SDS011;74548;47.712;9.272;2024-01-30T07:52:41;2.47;;;1.97;;
84357;SDS011;74548;47.712;9.272;2024-01-30T07:58:41;3.38;;;2.15;;
84357;SDS011;74548;47.712;9.272;2024-01-30T08:01:06;2.55;;;1.60;;
84357;SDS011;74548;47.712;9.272;2024-01-30T08:03:31;3.47;;;1.95;;
84357;SDS011;74548;47.712;9.272;2024-01-30T08:05:57;2.87;;;1.83;;
84357;SDS011;74548;47.712;9.272;2024-01-30T08:08:22;3.42;;;1.77;;
84357;SDS011;74548;47.712;9.272;2024-01-30T08:10:47;3.20;;;2.17;;
84357;SDS011;74548;47.712;9.272;2024-01-30T08:13:14;6.28;;;3.40;;
84357;SDS011;74548;47.712;9.272;2024-01-30T08:15:39;4.57;;;3.00;;
84357;SDS011;74548;47.712;9.272;2024-01-30T08:18:04;5.38;;;3.78;;
84357;SDS011;74548;47.712;9.272;2024-01-30T08:20:31;4.15;;;3.00;;
84357;SDS011;74548;47.712;9.272;2024-01-30T08:22:57;4.55;;;2.92;;
84357;SDS011;74548;47.712;9.272;2024-01-30T08:25:22;4.45;;;3.25;;
84357;SDS011;74548;47.712;9.272;2024-01-30T08:27:47;3.90;;;2.93;;
84357;SDS011;74548;47.712;9.272;2024-01-30T08:30:13;4.10;;;3.08;;
84357;SDS011;74548;47.712;9.272;2024-01-30T08:34:50;4.50;;;2.97;;
84357;SDS011;74548;47.712;9.272;2024-01-30T08:37:16;5.38;;;2.88;;
84357;SDS011;74548;47.712;9.272;2024-01-30T08:39:42;4.20;;;2.90;;
84357;SDS011;74548;47.712;9.272;2024-01-30T08:42:08;3.88;;;3.10;;
84357;SDS011;74548;47.712;9.272;2024-01-30T08:44:33;3.23;;;2.47;;
84357;SDS011;74548;47.712;9.272;2024-01-30T08:46:58;4.93;;;3.40;;
84357;SDS011;74548;47.712;9.272;2024-01-30T08:49:24;3.57;;;2.67;;
84357;SDS011;74548;47.712;9.272;2024-01-30T08:51:49;3.70;;;2.45;;
84357;SDS011;74548;47.712;9.272;2024-01-30T08:54:15;4.00;;;2.63;;
84357;SDS011;74548;47.712;9.272;2024-01-30T08:56:40;4.53;;;2.88;;
84357;SDS011;74548;47.712;9.272;2024-01-30T08:59:06;3.93;;;2.60;;
84357;SDS011;74548;47.712;9.272;2024-01-30T09:01:31;3.47;;;2.60;;
84357;SDS011;74548;47.712;9.272;2024-01-30T09:03:56;4.33;;;2.77;;
84357;SDS011;74548;47.712;9.272;2024-01-30T09:06:22;3.95;;;2.92;;
84357;SDS011;74548;47.712;9.272;2024-01-30T09:08:47;4.60;;;2.83;;
84357;SDS011;74548;47.712;9.272;2024-01-30T09:11:13;4.60;;;3.33;;
84357;SDS011;74548;47.712;9.272;2024-01-30T09:13:39;7.35;;;2.97;;
84357;SDS011;74548;47.712;9.272;2024-01-30T09:16:06;4.82;;;2.90;;
84357;SDS011;74548;47.712;9.272;2024-01-30T09:18:31;9.48;;;3.60;;
84357;SDS011;74548;47.712;9.272;2024-01-30T09:20:57;6.30;;;3.55;;
84357;SDS011;74548;47.712;9.272;2024-01-30T09:23:23;6.10;;;3.53;;
84357;SDS011;74548;47.712;9.272;2024-01-30T09:25:49;5.80;;;3.42;;
84357;SDS011;74548;47.712;9.272;2024-01-30T09:28:15;6.65;;;3.58;;
84357;SDS011;74548;47.712;9.272;2024-01-30T09:30:40;5.38;;;3.95;;
84357;SDS011;74548;47.712;9.272;2024-01-30T09:33:06;6.33;;;3.63;;
84357;SDS011;74548;47.712;9.272;2024-01-30T09:35:31;5.82;;;3.90;;
84357;SDS011;74548;47.712;9.272;2024-01-30T09:37:57;5.57;;;3.35;;
84357;SDS011;74548;47.712;9.272;2024-01-30T09:40:22;5.22;;;3.03;;
84357;SDS011;74548;47.712;9.272;2024-01-30T09:42:48;5.22;;;3.15;;
84357;SDS011;74548;47.712;9.272;2024-01-30T09:45:15;6.07;;;3.33;;
84357;SDS011;74548;47.712;9.272;2024-01-30T09:47:45;4.72;;;2.92;;
84357;SDS011;74548;47.712;9.272;2024-01-30T09:50:12;4.70;;;2.97;;
84357;SDS011;74548;47.712;9.272;2024-01-30T09:52:38;6.50;;;3.13;;
84357;SDS011;74548;47.712;9.272;2024-01-30T09:55:05;5.18;;;2.97;;
84357;SDS011;74548;47.712;9.272;2024-01-30T09:57:31;5.20;;;2.80;;
84357;SDS011;74548;47.712;9.272;2024-01-30T09:59:57;5.78;;;4.28;;
84357;SDS011;74548;47.712;9.272;2024-01-30T10:06:34;4.10;;;2.80;;
84357;SDS011;74548;47.712;9.272;2024-01-30T10:08:59;6.00;;;3.30;;
84357;SDS011;74548;47.712;9.272;2024-01-30T10:11:25;5.13;;;3.47;;
84357;SDS011;74548;47.712;9.272;2024-01-30T10:13:50;5.87;;;3.10;;
84357;SDS011;74548;47.712;9.272;2024-01-30T10:16:15;4.63;;;2.83;;
84357;SDS011;74548;47.712;9.272;2024-01-30T10:18:43;4.72;;;3.20;;
84357;SDS011;74548;47.712;9.272;2024-01-30T10:21:09;5.50;;;2.90;;
84357;SDS011;74548;47.712;9.272;2024-01-30T10:23:35;4.75;;;2.97;;
84357;SDS011;74548;47.712;9.272;2024-01-30T10:26:02;5.85;;;3.17;;
84357;SDS011;74548;47.712;9.272;2024-01-30T10:28:29;4.45;;;2.92;;
84357;SDS011;74548;47.712;9.272;2024-01-30T10:30:58;4.28;;;3.30;;
84357;SDS011;74548;47.712;9.272;2024-01-30T10:36:00;6.20;;;4.03;;
84357;SDS011;74548;47.712;9.272;2024-01-30T10:38:30;5.47;;;3.90;;
84357;SDS011;74548;47.712;9.272;2024-01-30T10:40:57;7.95;;;4.45;;
84357;SDS011;74548;47.712;9.272;2024-01-30T10:43:30;7.40;;;4.78;;
84357;SDS011;74548;47.712;9.272;2024-01-30T10:45:57;6.07;;;3.75;;
84357;SDS011;74548;47.712;9.272;2024-01-30T10:48:35;5.53;;;4.00;;
84357;SDS011;74548;47.712;9.272;2024-01-30T10:51:07;6.60;;;4.07;;
84357;SDS011;74548;47.712;9.272;2024-01-30T10:53:34;6.95;;;3.53;;
84357;SDS011;74548;47.712;9.272;2024-01-30T10:56:00;6.20;;;3.95;;
84357;SDS011;74548;47.712;9.272;2024-01-30T10:58:27;4.93;;;3.50;;
84357;SDS011;74548;47.712;9.272;2024-01-30T11:00:53;5.40;;;3.63;;
84357;SDS011;74548;47.712;9.272;2024-01-30T11:03:19;6.00;;;3.42;;
84357;SDS011;74548;47.712;9.272;2024-01-30T11:05:49;5.40;;;3.60;;
84357;SDS011;74548;47.712;9.272;2024-01-30T11:08:22;5.03;;;3.17;;
84357;SDS011;74548;47.712;9.272;2024-01-30T11:10:48;6.55;;;3.85;;
84357;SDS011;74548;47.712;9.272;2024-01-30T11:13:14;5.53;;;3.22;;
84357;SDS011;74548;47.712;9.272;2024-01-30T11:15:40;5.13;;;3.78;;
84357;SDS011;74548;47.712;9.272;2024-01-30T11:18:05;5.50;;;3.57;;
84357;SDS011;74548;47.712;9.272;2024-01-30T11:20:31;4.85;;;3.20;;
84357;SDS011;74548;47.712;9.272;2024-01-30T11:22:57;6.97;;;3.63;;
84357;SDS011;74548;47.712;9.272;2024-01-30T11:25:23;5.85;;;3.50;;
84357;SDS011;74548;47.712;9.272;2024-01-30T11:27:51;5.07;;;3.60;;
84357;SDS011;74548;47.712;9.272;2024-01-30T11:30:28;5.03;;;3.75;;
84357;SDS011;74548;47.712;9.272;2024-01-30T11:33:03;4.70;;;3.08;;
84357;SDS011;74548;47.712;9.272;2024-01-30T11:35:31;6.38;;;3.60;;
84357;SDS011;74548;47.712;9.272;2024-01-30T11:37:58;6.10;;;3.70;;
84357;SDS011;74548;47.712;9.272;2024-01-30T11:40:26;4.78;;;3.00;;
84357;SDS011;74548;47.712;9.272;2024-01-30T11:42:53;4.13;;;2.60;;
84357;SDS011;74548;47.712;9.272;2024-01-30T11:45:19;4.15;;;2.85;;
84357;SDS011;74548;47.712;9.272;2024-01-30T11:47:45;4.70;;;3.17;;
84357;SDS011;74548;47.712;9.272;2024-01-30T11:50:10;4.60;;;3.38;;
84357;SDS011;74548;47.712;9.272;2024-01-30T11:52:36;4.53;;;3.08;;
84357;SDS011;74548;47.712;9.272;2024-01-30T11:55:02;4.95;;;3.53;;
84357;SDS011;74548;47.712;9.272;2024-01-30T11:57:27;5.10;;;3.35;;
84357;SDS011;74548;47.712;9.272;2024-01-30T11:59:53;4.60;;;3.17;;
84357;SDS011;74548;47.712;9.272;2024-01-30T12:02:18;5.57;;;3.40;;
84357;SDS011;74548;47.712;9.272;2024-01-30T12:04:44;4.93;;;3.20;;
84357;SDS011;74548;47.712;9.272;2024-01-30T12:07:09;5.28;;;3.35;;
84357;SDS011;74548;47.712;9.272;2024-01-30T12:09:35;5.90;;;3.65;;
84357;SDS011;74548;47.712;9.272;2024-01-30T12:12:01;6.70;;;4.85;;
84357;SDS011;74548;47.712;9.272;2024-01-30T12:14:26;6.40;;;3.87;;
84357;SDS011;74548;47.712;9.272;2024-01-30T12:16:51;6.53;;;4.20;;
84357;SDS011;74548;47.712;9.272;2024-01-30T12:19:26;6.07;;;3.78;;
84357;SDS011;74548;47.712;9.272;2024-01-30T12:21:55;5.43;;;3.50;;
84357;SDS011;74548;47.712;9.272;2024-01-30T12:24:27;6.18;;;4.07;;
84357;SDS011;74548;47.712;9.272;2024-01-30T12:26:56;6.18;;;4.03;;
84357;SDS011;74548;47.712;9.272;2024-01-30T12:31:47;6.10;;;3.43;;
84357;SDS011;74548;47.712;9.272;2024-01-30T12:36:42;6.28;;;3.88;;
84357;SDS011;74548;47.712;9.272;2024-01-30T12:39:11;5.28;;;3.38;;
84357;SDS011;74548;47.712;9.272;2024-01-30T12:41:38;5.72;;;3.63;;
84357;SDS011;74548;47.712;9.272;2024-01-30T12:44:03;6.85;;;4.32;;
84357;SDS011;74548;47.712;9.272;2024-01-30T12:46:28;6.18;;;4.10;;
84357;SDS011;74548;47.712;9.272;2024-01-30T12:48:54;6.15;;;3.72;;
84357;SDS011;74548;47.712;9.272;2024-01-30T12:51:19;5.60;;;3.78;;
84357;SDS011;74548;47.712;9.272;2024-01-30T12:53:45;6.78;;;4.72;;
84357;SDS011;74548;47.712;9.272;2024-01-30T12:56:12;5.60;;;4.35;;
84357;SDS011;74548;47.712;9.272;2024-01-30T12:58:38;5.10;;;3.47;;
84357;SDS011;74548;47.712;9.272;2024-01-30T13:01:03;5.27;;;3.43;;
84357;SDS011;74548;47.712;9.272;2024-01-30T13:03:28;5.50;;;3.42;;
84357;SDS011;74548;47.712;9.272;2024-01-30T13:08:14;5.80;;;4.25;;
84357;SDS011;74548;47.712;9.272;2024-01-30T13:10:39;7.47;;;3.97;;
84357;SDS011;74548;47.712;9.272;2024-01-30T13:13:05;6.77;;;4.40;;
84357;SDS011;74548;47.712;9.272;2024-01-30T13:15:30;5.20;;;3.80;;
84357;SDS011;74548;47.712;9.272;2024-01-30T13:17:55;5.87;;;3.50;;
84357;SDS011;74548;47.712;9.272;2024-01-30T13:20:21;5.90;;;3.65;;
84357;SDS011;74548;47.712;9.272;2024-01-30T13:22:49;5.60;;;3.40;;
84357;SDS011;74548;47.712;9.272;2024-01-30T13:25:15;7.07;;;3.97;;
84357;SDS011;74548;47.712;9.272;2024-01-30T13:27:41;5.80;;;4.43;;
84357;SDS011;74548;47.712;9.272;2024-01-30T13:30:06;5.57;;;3.13;;
84357;SDS011;74548;47.712;9.272;2024-01-30T13:32:34;5.00;;;3.83;;
84357;SDS011;74548;47.712;9.272;2024-01-30T13:34:59;6.35;;;3.55;;
84357;SDS011;74548;47.712;9.272;2024-01-30T13:37:24;5.53;;;3.45;;
84357;SDS011;74548;47.712;9.272;2024-01-30T13:39:50;6.32;;;4.15;;
84357;SDS011;74548;47.712;9.272;2024-01-30T13:42:15;6.70;;;4.10;;
84357;SDS011;74548;47.712;9.272;2024-01-30T13:44:41;4.82;;;3.38;;
84357;SDS011;74548;47.712;9.272;2024-01-30T13:47:08;5.75;;;3.60;;
84357;SDS011;74548;47.712;9.272;2024-01-30T13:49:33;5.60;;;3.67;;
84357;SDS011;74548;47.712;9.272;2024-01-30T13:51:58;5.63;;;3.60;;
84357;SDS011;74548;47.712;9.272;2024-01-30T13:54:24;5.10;;;3.30;;
84357;SDS011;74548;47.712;9.272;2024-01-30T13:56:51;5.47;;;3.37;;
84357;SDS011;74548;47.712;9.272;2024-01-30T13:59:16;5.32;;;3.75;;
84357;SDS011;74548;47.712;9.272;2024-01-30T14:01:47;6.22;;;3.75;;
84357;SDS011;74548;47.712;9.272;2024-01-30T14:04:13;4.40;;;3.28;;
84357;SDS011;74548;47.712;9.272;2024-01-30T14:06:39;4.82;;;3.33;;
84357;SDS011;74548;47.712;9.272;2024-01-30T14:09:05;4.80;;;3.78;;
84357;SDS011;74548;47.712;9.272;2024-01-30T14:11:30;4.63;;;3.40;;
84357;SDS011;74548;47.712;9.272;2024-01-30T14:16:08;5.75;;;4.10;;
84357;SDS011;74548;47.712;9.272;2024-01-30T14:18:33;6.18;;;3.53;;
84357;SDS011;74548;47.712;9.272;2024-01-30T14:20:59;5.50;;;3.60;;
84357;SDS011;74548;47.712;9.272;2024-01-30T14:23:24;6.32;;;4.60;;
84357;SDS011;74548;47.712;9.272;2024-01-30T14:25:50;7.10;;;4.20;;
84357;SDS011;74548;47.712;9.272;2024-01-30T14:28:16;5.78;;;3.78;;
84357;SDS011;74548;47.712;9.272;2024-01-30T14:30:42;4.75;;;3.60;;
84357;SDS011;74548;47.712;9.272;2024-01-30T14:35:26;5.65;;;3.60;;
84357;SDS011;74548;47.712;9.272;2024-01-30T14:37:51;6.07;;;3.88;;
84357;SDS011;74548;47.712;9.272;2024-01-30T14:40:17;5.65;;;3.47;;
84357;SDS011;74548;47.712;9.272;2024-01-30T14:42:43;5.78;;;4.28;;
84357;SDS011;74548;47.712;9.272;2024-01-30T14:45:08;7.13;;;4.77;;
84357;SDS011;74548;47.712;9.272;2024-01-30T14:47:34;7.32;;;4.82;;
84357;SDS011;74548;47.712;9.272;2024-01-30T14:50:01;6.22;;;3.67;;
84357;SDS011;74548;47.712;9.272;2024-01-30T14:52:26;7.13;;;4.18;;
84357;SDS011;74548;47.712;9.272;2024-01-30T14:54:52;5.45;;;3.78;;
84357;SDS011;74548;47.712;9.272;2024-01-30T14:57:17;6.50;;;3.97;;
84357;SDS011;74548;47.712;9.272;2024-01-30T15:02:00;5.07;;;3.28;;
84357;SDS011;74548;47.712;9.272;2024-01-30T15:04:26;4.88;;;3.38;;
84357;SDS011;74548;47.712;9.272;2024-01-30T15:06:51;6.57;;;3.75;;
84357;SDS011;74548;47.712;9.272;2024-01-30T15:09:17;4.53;;;3.08;;
84357;SDS011;74548;47.712;9.272;2024-01-30T15:11:43;4.60;;;3.22;;
84357;SDS011;74548;47.712;9.272;2024-01-30T15:14:09;4.68;;;3.20;;
84357;SDS011;74548;47.712;9.272;2024-01-30T15:16:35;4.90;;;3.40;;
84357;SDS011;74548;47.712;9.272;2024-01-30T15:19:00;5.00;;;3.22;;
84357;SDS011;74548;47.712;9.272;2024-01-30T15:21:26;6.70;;;3.63;;